Time;durP1;ratioP1;P1;durP2;ratioP2;P2;SDS_P1;SDS_P2;PMS_P1;PMS_P2;Temp;Humidity;BMP_temperature;BMP_pressure;BME280_temperature;BME280_humidity;BME280_pressure;Samples;Min_cycle;Max_cycle;Signal;HPM_P1;HPM_P2
2021/12/05 00:21:34;;;;;;;;;;;;;;;5.65;71.78;99737.06;5051591;28;19921;-61
2021/12/05 00:24:09;;;;;;;;;;;;;;;5.67;71.32;99736.84;5052226;28;19916;-61
2021/12/05 00:26:35;;;;;;;;;;;;;;;5.69;71.51;99728.31;5051914;28;19963;-61
2021/12/05 00:29:49;;;;;;;;;;;;;;;5.66;71.13;99738.75;5049111;28;20381;-59
2021/12/05 00:34:45;;;;;;;;;;;;;;;5.64;71.36;99735.41;5052081;28;19939;-61
2021/12/05 00:42:43;;;;;;;;;;;;;;;5.69;71.87;99731.06;5055921;28;19999;-61
2021/12/05 00:48:07;;;;;;;;;;;;;;;5.66;71.38;99732.41;5050738;28;19928;-61
2021/12/05 00:51:01;;;;;;;;;;;;;;;5.63;71.41;99736.50;5056613;28;19970;-61
2021/12/05 00:53:56;;;;;;;;;;;;;;;5.61;71.21;99735.88;5055739;28;19912;-61
2021/12/05 01:01:45;;;;;;;;;;;;;;;5.43;71.30;99736.13;5055512;28;20035;-61
2021/12/05 01:07:07;;;;;;;;;;;;;;;5.34;71.44;99740.34;5054210;28;20387;-61
2021/12/05 01:09:39;;;;;;;;;;;;;;;5.34;71.82;99743.09;5050980;28;20283;-61
2021/12/05 01:17:04;;;;;;;;;;;;;;;5.41;71.80;99738.28;5055562;28;20310;-61
2021/12/05 01:19:31;;;;;;;;;;;;;;;5.39;71.45;99735.78;5055356;28;20360;-61
2021/12/05 01:22:01;;;;;;;;;;;;;;;5.39;71.83;99737.72;5051122;28;20311;-59
2021/12/05 01:27:11;;;;;;;;;;;;;;;5.36;71.35;99735.44;5054409;28;20008;-59
2021/12/05 01:32:13;;;;;;;;;;;;;;;5.32;71.23;99737.00;5055760;28;19920;-61
2021/12/05 01:46:03;;;;;;;;;;;;;;;5.10;71.09;99740.44;5054815;28;19921;-60
2021/12/05 01:56:44;;;;;;;;;;;;;;;5.02;71.60;99743.56;5053364;28;20395;-60
2021/12/05 01:59:58;;;;;;;;;;;;;;;5.02;71.65;99738.06;5048193;28;19927;-60
2021/12/05 02:15:55;;;;;;;;;;;;;;;5.03;71.67;99715.00;5053541;28;19979;-59
2021/12/05 02:32:49;;;;;;;;;;;;;;;4.98;71.55;99717.63;5040100;28;19931;-59
2021/12/05 02:42:46;;;;;;;;;;;;;;;4.96;71.78;99706.06;5054902;28;19952;-60
2021/12/05 02:45:12;;;;;;;;;;;;;;;4.99;71.49;99716.59;5053158;28;20003;-60
2021/12/05 02:47:37;;;;;;;;;;;;;;;5.00;71.89;99703.66;5053555;28;19920;-60
2021/12/05 02:50:06;;;;;;;;;;;;;;;5.00;71.64;99711.91;5049656;28;20004;-60
2021/12/05 02:52:33;;;;;;;;;;;;;;;4.98;71.67;99709.38;5053378;28;19916;-60
2021/12/05 02:55:03;;;;;;;;;;;;;;;4.96;71.59;99714.31;5052945;28;20030;-60
2021/12/05 03:00:17;;;;;;;;;;;;;;;4.97;71.76;99718.72;5050297;28;19921;-60
2021/12/05 03:02:45;;;;;;;;;;;;;;;4.97;71.61;99723.38;5053771;28;20023;-60
2021/12/05 03:05:15;;;;;;;;;;;;;;;4.95;71.57;99715.38;5052763;28;20000;-60
2021/12/05 03:07:41;;;;;;;;;;;;;;;4.97;71.86;99718.72;5052862;28;19920;-60
2021/12/05 03:10:08;;;;;;;;;;;;;;;4.95;71.90;99720.03;5053054;28;19928;-60
2021/12/05 03:12:35;;;;;;;;;;;;;;;4.98;71.86;99717.63;5053175;28;19924;-60
2021/12/05 03:15:03;;;;;;;;;;;;;;;5.04;71.89;99713.09;5053911;28;19923;-60
2021/12/05 03:17:29;;;;;;;;;;;;;;;4.99;71.93;99711.09;5052529;28;19959;-60
2021/12/05 03:19:54;;;;;;;;;;;;;;;4.98;71.94;99698.38;5052888;28;20336;-60
2021/12/05 03:22:19;;;;;;;;;;;;;;;4.93;72.00;99703.78;5050966;28;19920;-61
2021/12/05 03:24:45;;;;;;;;;;;;;;;4.95;72.02;99701.63;5053634;28;20261;-60
2021/12/05 03:27:10;;;;;;;;;;;;;;;4.94;72.07;99697.22;5051963;28;19920;-60
2021/12/05 03:29:35;;;;;;;;;;;;;;;4.94;72.10;99705.47;5053615;28;20437;-60
2021/12/05 03:32:00;;;;;;;;;;;;;;;4.96;71.92;99703.31;5052843;28;19920;-60
2021/12/05 03:34:25;;;;;;;;;;;;;;;4.96;72.01;99689.56;5052845;28;20015;-60
2021/12/05 03:36:54;;;;;;;;;;;;;;;4.99;72.41;99694.59;5052515;28;20430;-60
2021/12/05 03:39:19;;;;;;;;;;;;;;;5.03;71.95;99697.66;5053601;28;19917;-60
2021/12/05 03:41:44;;;;;;;;;;;;;;;5.06;72.08;99706.25;5047197;28;19921;-60
2021/12/05 03:44:11;;;;;;;;;;;;;;;5.03;71.86;99693.00;5053425;28;19917;-60
2021/12/05 03:46:37;;;;;;;;;;;;;;;5.01;71.88;99700.66;5051504;28;19920;-60
2021/12/05 03:49:04;;;;;;;;;;;;;;;5.00;72.02;99707.25;5034678;28;20017;-60
2021/12/05 03:51:31;;;;;;;;;;;;;;;5.00;71.85;99704.50;5053537;28;19913;-60
2021/12/05 03:53:56;;;;;;;;;;;;;;;5.02;72.09;99706.97;5052592;28;19939;-60
2021/12/05 03:56:22;;;;;;;;;;;;;;;5.02;72.15;99699.56;5051893;28;19991;-60
2021/12/05 03:58:48;;;;;;;;;;;;;;;5.03;72.22;99704.00;5048064;28;19999;-60
2021/12/05 04:01:14;;;;;;;;;;;;;;;5.06;72.19;99708.16;5050949;28;19965;-60
2021/12/05 04:03:41;;;;;;;;;;;;;;;5.05;72.25;99714.75;5053155;28;19927;-60
2021/12/05 04:06:08;;;;;;;;;;;;;;;5.04;72.29;99705.66;5052981;28;19920;-60
2021/12/05 04:08:33;;;;;;;;;;;;;;;5.06;72.31;99706.25;5051850;28;20022;-60
2021/12/05 04:11:00;;;;;;;;;;;;;;;5.08;72.13;99709.59;5053115;28;20376;-60
2021/12/05 04:13:26;;;;;;;;;;;;;;;5.10;72.13;99718.44;5053289;28;19920;-60
2021/12/05 04:15:53;;;;;;;;;;;;;;;5.10;72.37;99706.59;5049802;28;20372;-60
2021/12/05 04:18:19;;;;;;;;;;;;;;;5.15;71.83;99709.47;5057225;28;19917;-60
2021/12/05 04:20:45;;;;;;;;;;;;;;;5.16;72.21;99702.88;5055969;28;19928;-60
2021/12/05 04:23:11;;;;;;;;;;;;;;;5.17;72.16;99708.13;5055439;28;19964;-60
2021/12/05 04:25:37;;;;;;;;;;;;;;;5.17;72.22;99716.38;5056559;28;19956;-60
2021/12/05 04:28:04;;;;;;;;;;;;;;;5.20;72.07;99722.47;5056688;28;20445;-60
2021/12/05 04:30:29;;;;;;;;;;;;;;;5.16;72.10;99711.97;5055252;28;19921;-60
2021/12/05 04:32:54;;;;;;;;;;;;;;;5.14;72.10;99719.59;5046651;28;19921;-60
2021/12/05 04:35:20;;;;;;;;;;;;;;;5.10;72.22;99712.09;5037017;28;19917;-60
2021/12/05 04:37:45;;;;;;;;;;;;;;;5.10;72.55;99717.59;5044686;28;20334;-60
2021/12/05 04:40:11;;;;;;;;;;;;;;;5.09;72.50;99715.94;5055875;28;19921;-60
2021/12/05 04:42:36;;;;;;;;;;;;;;;5.11;72.38;99711.88;5056696;28;19917;-60
2021/12/05 04:45:07;;;;;;;;;;;;;;;5.15;72.39;99723.22;5055006;28;19972;-60
2021/12/05 04:47:32;;;;;;;;;;;;;;;5.16;72.28;99714.72;5054206;28;20411;-60
2021/12/05 04:49:57;;;;;;;;;;;;;;;5.14;72.16;99716.84;5038239;28;19917;-60
2021/12/05 04:52:22;;;;;;;;;;;;;;;5.09;72.45;99722.25;5044129;28;19974;-60
2021/12/05 04:54:47;;;;;;;;;;;;;;;5.04;72.55;99713.91;5056378;28;19921;-60
2021/12/05 04:57:13;;;;;;;;;;;;;;;5.04;72.52;99719.41;5056469;28;19963;-60
2021/12/05 04:59:44;;;;;;;;;;;;;;;5.08;72.30;99712.34;5055710;28;20000;-60
2021/12/05 05:02:09;;;;;;;;;;;;;;;5.07;72.52;99707.94;5055839;28;19979;-60
2021/12/05 05:04:42;;;;;;;;;;;;;;;5.09;72.43;99700.25;5051053;28;19942;-60
2021/12/05 05:07:13;;;;;;;;;;;;;;;5.11;72.35;99709.13;5056429;28;20367;-60
2021/12/05 05:09:39;;;;;;;;;;;;;;;5.14;72.47;99708.59;5055346;28;20015;-60
2021/12/05 05:12:04;;;;;;;;;;;;;;;5.12;72.75;99709.94;5055272;28;20416;-60
2021/12/05 05:14:30;;;;;;;;;;;;;;;5.12;72.59;99707.19;5055259;28;19917;-60
2021/12/05 05:16:55;;;;;;;;;;;;;;;5.12;72.43;99707.19;5055349;28;20019;-60
2021/12/05 05:19:26;;;;;;;;;;;;;;;5.13;72.50;99717.94;5055093;28;19916;-60
2021/12/05 05:22:24;;;;;;;;;;;;;;;5.14;72.66;99711.34;5050479;28;19932;-60
2021/12/05 05:30:27;;;;;;;;;;;;;;;5.14;72.66;99729.78;5056095;28;19956;-60
2021/12/05 05:47:32;;;;;;;;;;;;;;;5.13;72.60;99739.13;5054002;28;19924;-60
2021/12/05 05:52:06;;;;;;;;;;;;;;;4.95;72.99;99747.53;5056067;28;19924;-60
2021/12/05 05:54:31;;;;;;;;;;;;;;;4.88;73.00;99747.69;5053384;28;19928;-60
2021/12/05 05:57:05;;;;;;;;;;;;;;;4.89;72.81;99741.09;5052253;28;19924;-60
2021/12/05 05:59:41;;;;;;;;;;;;;;;4.92;72.86;99746.97;5052092;28;19917;-60
2021/12/05 06:04:51;;;;;;;;;;;;;;;5.02;72.78;99753.72;5024107;28;19960;-60
2021/12/05 06:07:16;;;;;;;;;;;;;;;5.02;72.72;99751.81;5055356;28;20331;-60
2021/12/05 06:09:42;;;;;;;;;;;;;;;5.00;72.68;99765.00;5053858;28;19924;-60
2021/12/05 06:12:07;;;;;;;;;;;;;;;4.95;72.84;99751.13;5049713;28;19944;-60
2021/12/05 06:14:32;;;;;;;;;;;;;;;4.97;72.72;99762.72;5054868;28;19923;-60
2021/12/05 06:16:57;;;;;;;;;;;;;;;5.00;72.94;99766.91;5053498;28;19921;-60
2021/12/05 06:19:23;;;;;;;;;;;;;;;4.98;72.80;99758.06;5055029;28;19997;-60
2021/12/05 06:21:49;;;;;;;;;;;;;;;4.97;72.84;99765.47;5054770;28;20011;-60
2021/12/05 06:24:14;;;;;;;;;;;;;;;5.01;72.68;99766.66;5054168;28;19917;-60
2021/12/05 06:26:41;;;;;;;;;;;;;;;5.01;72.68;99754.81;5053207;28;20391;-60
2021/12/05 06:29:13;;;;;;;;;;;;;;;5.00;72.74;99773.25;5054131;28;19956;-60
2021/12/05 06:31:53;;;;;;;;;;;;;;;5.03;72.76;99771.91;5054862;28;19971;-60
2021/12/05 06:37:29;;;;;;;;;;;;;;;5.03;72.79;99777.41;5030598;28;20422;-61
2021/12/05 06:46:13;;;;;;;;;;;;;;;5.00;73.22;99788.91;5052711;28;19925;-60
2021/12/05 06:48:07;;;;;;;;;;;;;;;4.99;73.23;99792.72;5035843;28;19974;-60
2021/12/05 06:50:32;;;;;;;;;;;;;;;4.99;72.41;99796.31;5052610;28;19925;-60
2021/12/05 06:52:58;;;;;;;;;;;;;;;5.01;72.75;99793.31;5054123;28;19917;-60
2021/12/05 06:55:23;;;;;;;;;;;;;;;5.00;73.06;99805.41;5053411;28;19973;-60
2021/12/05 06:57:48;;;;;;;;;;;;;;;4.99;73.05;99795.47;5053315;28;19927;-60
2021/12/05 07:00:16;;;;;;;;;;;;;;;4.97;72.76;99800.38;5049629;28;20287;-60
2021/12/05 07:02:41;;;;;;;;;;;;;;;4.97;72.93;99809.47;5053730;28;19962;-60
2021/12/05 07:05:26;;;;;;;;;;;;;;;4.98;72.98;99808.38;5052424;28;19929;-60
2021/12/05 07:07:51;;;;;;;;;;;;;;;4.99;72.95;99821.06;5053328;28;19921;-60
2021/12/05 07:10:20;;;;;;;;;;;;;;;5.00;72.84;99825.50;5054006;28;19919;-60
2021/12/05 07:15:30;;;;;;;;;;;;;;;5.05;73.04;99841.25;5053924;28;19917;-60
2021/12/05 07:26:28;;;;;;;;;;;;;;;5.12;73.07;99842.81;5033099;28;19964;-60
2021/12/05 07:42:38;;;;;;;;;;;;;;;5.14;73.02;99862.63;5033823;28;19995;-60
2021/12/05 07:45:05;;;;;;;;;;;;;;;5.12;73.05;99859.31;5042332;28;19921;-60
2021/12/05 07:47:32;;;;;;;;;;;;;;;5.13;72.95;99860.16;5051821;28;20274;-61
2021/12/05 07:50:01;;;;;;;;;;;;;;;5.13;73.61;99866.47;5053059;28;20372;-60
2021/12/05 07:52:29;;;;;;;;;;;;;;;5.16;73.02;99870.66;5052141;28;19916;-60
2021/12/05 07:55:03;;;;;;;;;;;;;;;5.18;72.88;99874.00;5048909;28;19925;-60
2021/12/05 07:57:36;;;;;;;;;;;;;;;5.20;73.32;99876.53;5048282;28;20415;-60
2021/12/05 08:16:19;;;;;;;;;;;;;;;5.29;73.40;99900.66;5036252;28;20318;-60
2021/12/05 08:18:44;;;;;;;;;;;;;;;5.30;73.41;99894.06;5053024;28;19916;-60
2021/12/05 08:21:10;;;;;;;;;;;;;;;5.33;72.73;99895.50;5053093;28;19917;-60
2021/12/05 08:23:35;;;;;;;;;;;;;;;5.31;73.15;99895.78;5050666;28;19962;-59
2021/12/05 08:26:10;;;;;;;;;;;;;;;5.33;73.19;99892.75;5052791;28;19946;-59
2021/12/05 08:31:13;;;;;;;;;;;;;;;5.35;72.80;99901.63;5061394;28;20285;-60
2021/12/05 08:42:35;;;;;;;;;;;;;;;5.36;73.10;99911.53;5029682;28;20027;-59
2021/12/05 09:23:56;;;;;;;;;;;;;;;5.37;72.75;99958.06;5001771;28;19960;-62
2021/12/05 09:40:08;;;;;;;;;;;;;;;5.37;73.25;99993.00;5027476;28;19975;-61
2021/12/05 09:51:16;;;;;;;;;;;;;;;5.32;72.88;100002.00;5028360;28;20292;-61
2021/12/05 10:02:11;;;;;;;;;;;;;;;5.31;73.39;100014.09;5048719;28;20063;-63
2021/12/05 10:07:35;;;;;;;;;;;;;;;5.33;73.56;100030.34;5049932;28;19928;-61
2021/12/05 10:15:16;;;;;;;;;;;;;;;5.35;74.20;100036.47;5052526;28;20357;-61
2021/12/05 10:18:19;;;;;;;;;;;;;;;5.38;73.57;100038.72;5052562;28;19921;-61
2021/12/05 10:26:21;;;;;;;;;;;;;;;5.42;73.63;100039.91;5049315;28;19923;-63
2021/12/05 10:38:01;;;;;;;;;;;;;;;5.49;73.81;100065.41;5048366;28;20008;-62
2021/12/05 10:40:35;;;;;;;;;;;;;;;5.51;73.53;100065.19;5043284;28;19978;-62
2021/12/05 10:43:02;;;;;;;;;;;;;;;5.51;73.18;100065.19;5046730;28;19925;-63
2021/12/05 10:45:29;;;;;;;;;;;;;;;5.48;73.52;100063.72;5043816;28;19920;-62
2021/12/05 10:47:55;;;;;;;;;;;;;;;5.48;73.12;100068.41;5051036;28;19927;-61
2021/12/05 10:50:31;;;;;;;;;;;;;;;5.48;73.38;100072.00;5045930;28;19928;-62
2021/12/05 10:53:15;;;;;;;;;;;;;;;5.46;73.57;100068.63;5045171;28;19939;-62
2021/12/05 10:55:40;;;;;;;;;;;;;;;5.48;73.54;100072.00;5039873;28;20391;-62
2021/12/05 10:58:06;;;;;;;;;;;;;;;5.48;73.54;100083.00;5048715;28;19935;-62
2021/12/05 11:00:31;;;;;;;;;;;;;;;5.47;73.81;100073.06;5052635;28;20347;-61
2021/12/05 11:03:16;;;;;;;;;;;;;;;5.46;73.54;100076.88;5051910;28;19921;-61
2021/12/05 11:05:42;;;;;;;;;;;;;;;5.41;73.46;100076.78;5051376;28;20276;-60
2021/12/05 11:08:26;;;;;;;;;;;;;;;5.43;73.53;100079.31;5051579;28;20284;-60
2021/12/05 11:11:04;;;;;;;;;;;;;;;5.39;73.06;100079.78;5051417;28;20331;-61
2021/12/05 11:13:29;;;;;;;;;;;;;;;5.41;73.62;100079.53;5051306;28;19928;-59
2021/12/05 11:15:54;;;;;;;;;;;;;;;5.45;73.40;100071.63;5047179;28;19920;-60
2021/12/05 11:18:38;;;;;;;;;;;;;;;5.47;73.49;100075.81;5051402;28;20292;-60
2021/12/05 11:21:22;;;;;;;;;;;;;;;5.50;73.52;100083.63;5053501;28;20344;-60
2021/12/05 11:24:02;;;;;;;;;;;;;;;5.53;73.50;100085.88;5052848;28;20486;-60
2021/12/05 11:26:29;;;;;;;;;;;;;;;5.56;73.33;100087.31;5052256;28;20376;-60
2021/12/05 11:28:54;;;;;;;;;;;;;;;5.54;72.83;100087.56;5052987;28;19920;-60
2021/12/05 11:31:24;;;;;;;;;;;;;;;5.54;72.71;100083.94;5051788;28;19943;-59
2021/12/05 11:33:50;;;;;;;;;;;;;;;5.55;73.02;100089.22;5047383;28;19931;-59
2021/12/05 11:36:21;;;;;;;;;;;;;;;5.57;72.94;100092.56;5052106;28;19951;-59
2021/12/05 11:38:47;;;;;;;;;;;;;;;5.57;73.40;100098.06;5053223;28;19920;-60
2021/12/05 11:41:14;;;;;;;;;;;;;;;5.61;73.77;100104.78;5051664;28;19931;-60
2021/12/05 11:43:42;;;;;;;;;;;;;;;5.65;73.08;100105.97;5040490;28;20299;-60
2021/12/05 11:46:07;;;;;;;;;;;;;;;5.65;72.96;100111.47;5042414;28;19964;-60
2021/12/05 11:48:35;;;;;;;;;;;;;;;5.64;73.29;100107.06;5051886;28;19971;-60
2021/12/05 11:51:02;;;;;;;;;;;;;;;5.65;72.87;100116.97;5046557;28;20345;-60
2021/12/05 11:53:38;;;;;;;;;;;;;;;5.65;73.34;100119.75;5052306;28;19959;-60
2021/12/05 11:56:04;;;;;;;;;;;;;;;5.65;73.31;100132.66;5049857;28;19921;-60
2021/12/05 11:58:29;;;;;;;;;;;;;;;5.72;73.57;100127.88;5060520;28;19921;-59
2021/12/05 12:01:00;;;;;;;;;;;;;;;5.75;72.94;100121.91;5047250;28;19967;-61
2021/12/05 12:03:30;;;;;;;;;;;;;;;5.74;73.68;100128.50;5045844;28;19921;-60
2021/12/05 12:05:55;;;;;;;;;;;;;;;5.74;72.67;100130.38;5049204;28;19928;-61
2021/12/05 12:08:21;;;;;;;;;;;;;;;5.76;72.81;100129.09;5048599;28;20372;-61
2021/12/05 12:10:47;;;;;;;;;;;;;;;5.75;72.77;100137.59;5051495;28;20384;-60
2021/12/05 12:13:15;;;;;;;;;;;;;;;5.72;73.08;100136.16;5051689;28;19940;-60
2021/12/05 12:15:43;;;;;;;;;;;;;;;5.68;73.10;100132.19;5051289;28;20002;-59
2021/12/05 12:18:17;;;;;;;;;;;;;;;5.68;73.01;100131.38;5044732;28;19928;-60
2021/12/05 12:20:46;;;;;;;;;;;;;;;5.69;72.82;100133.88;5047599;28;19925;-60
2021/12/05 12:23:12;;;;;;;;;;;;;;;5.71;72.92;100133.66;5053801;28;19921;-60
2021/12/05 12:25:38;;;;;;;;;;;;;;;5.73;72.46;100132.31;5047404;28;19916;-59
2021/12/05 12:28:05;;;;;;;;;;;;;;;5.74;73.00;100133.16;5045128;28;19921;-60
2021/12/05 12:30:35;;;;;;;;;;;;;;;5.72;72.54;100138.91;5041024;28;19929;-60
2021/12/05 12:33:05;;;;;;;;;;;;;;;5.70;72.99;100140.22;5041322;28;20283;-61
2021/12/05 12:35:33;;;;;;;;;;;;;;;5.70;73.08;100146.59;5042046;28;19928;-61
2021/12/05 12:38:00;;;;;;;;;;;;;;;5.71;72.59;100144.66;5050698;28;19921;-60
2021/12/05 12:40:33;;;;;;;;;;;;;;;5.72;72.71;100151.84;5050986;28;19936;-61
2021/12/05 12:42:59;;;;;;;;;;;;;;;5.73;73.14;100159.00;5049860;28;19920;-60
2021/12/05 12:45:24;;;;;;;;;;;;;;;5.70;72.38;100159.47;5045349;28;19928;-59
2021/12/05 12:47:58;;;;;;;;;;;;;;;5.70;72.99;100159.47;5048850;28;19982;-60
2021/12/05 12:50:35;;;;;;;;;;;;;;;5.72;72.87;100160.94;5048896;28;19973;-60
2021/12/05 12:53:17;;;;;;;;;;;;;;;5.74;72.77;100174.44;5049002;28;19987;-60
2021/12/05 12:55:49;;;;;;;;;;;;;;;5.76;73.02;100175.06;5050197;28;19992;-60
2021/12/05 12:58:32;;;;;;;;;;;;;;;5.78;72.46;100170.19;5046982;28;20501;-60
2021/12/05 13:01:00;;;;;;;;;;;;;;;5.78;72.69;100172.94;5052137;28;20364;-60
2021/12/05 13:03:40;;;;;;;;;;;;;;;5.77;73.11;100174.81;5047259;28;19924;-60
2021/12/05 13:11:48;;;;;;;;;;;;;;;5.80;72.86;100184.53;5044475;28;19936;-59
2021/12/05 13:14:13;;;;;;;;;;;;;;;5.80;72.40;100182.59;5046867;28;20442;-60
2021/12/05 13:16:41;;;;;;;;;;;;;;;5.80;72.37;100187.28;5048828;28;19924;-60
2021/12/05 13:19:13;;;;;;;;;;;;;;;5.81;72.43;100197.22;5041759;28;19925;-60
2021/12/05 13:21:41;;;;;;;;;;;;;;;5.81;72.62;100198.03;5043296;28;19925;-60
2021/12/05 13:24:25;;;;;;;;;;;;;;;5.82;72.47;100202.50;5043411;28;19924;-60
2021/12/05 13:26:52;;;;;;;;;;;;;;;5.83;72.38;100200.59;5043409;28;19932;-60
2021/12/05 13:29:25;;;;;;;;;;;;;;;5.82;72.32;100202.50;5045126;28;20027;-61
2021/12/05 13:32:10;;;;;;;;;;;;;;;5.82;72.16;100201.66;5043112;28;20438;-60
2021/12/05 13:34:42;;;;;;;;;;;;;;;5.85;72.61;100209.44;5041415;28;20522;-60
2021/12/05 13:37:10;;;;;;;;;;;;;;;5.85;72.23;100209.44;5041089;28;19924;-60
2021/12/05 13:39:41;;;;;;;;;;;;;;;5.86;72.51;100219.38;5044309;28;20011;-60
2021/12/05 13:42:12;;;;;;;;;;;;;;;5.85;72.52;100221.28;5049250;28;19928;-59
2021/12/05 13:44:56;;;;;;;;;;;;;;;5.89;73.15;100224.41;5043978;28;19924;-61
2021/12/05 13:47:27;;;;;;;;;;;;;;;5.93;72.70;100231.13;5044653;28;20023;-60
2021/12/05 13:49:52;;;;;;;;;;;;;;;5.90;72.50;100228.84;5047065;28;19974;-59
2021/12/05 13:52:31;;;;;;;;;;;;;;;5.90;72.18;100231.59;5047048;28;19923;-60
2021/12/05 13:55:15;;;;;;;;;;;;;;;5.91;71.96;100230.53;5046062;28;19928;-60
2021/12/05 13:58:00;;;;;;;;;;;;;;;5.90;72.48;100237.13;5047318;28;20356;-59
2021/12/05 14:00:39;;;;;;;;;;;;;;;5.89;72.14;100232.66;5048570;28;19925;-60
2021/12/05 14:03:04;;;;;;;;;;;;;;;5.89;72.09;100235.41;5050965;28;19925;-60
2021/12/05 14:05:30;;;;;;;;;;;;;;;5.90;72.30;100237.13;5049245;28;20315;-60
2021/12/05 14:07:55;;;;;;;;;;;;;;;5.90;72.72;100239.88;5044353;28;19924;-60
2021/12/05 14:10:20;;;;;;;;;;;;;;;5.89;72.23;100247.31;5045572;28;19925;-60
2021/12/05 14:12:45;;;;;;;;;;;;;;;5.89;72.21;100247.31;5046550;28;19925;-60
2021/12/05 14:15:12;;;;;;;;;;;;;;;5.91;72.16;100255.31;5045758;28;19921;-61
2021/12/05 14:17:40;;;;;;;;;;;;;;;5.91;72.65;100258.91;5048447;28;20019;-60
2021/12/05 14:20:05;;;;;;;;;;;;;;;5.93;72.33;100260.59;5048770;28;20380;-60
2021/12/05 14:22:31;;;;;;;;;;;;;;;5.93;72.61;100255.09;5052383;28;19928;-61
2021/12/05 14:24:58;;;;;;;;;;;;;;;5.93;72.29;100266.94;5052842;28;19921;-60
2021/12/05 14:27:24;;;;;;;;;;;;;;;5.94;72.06;100268.66;5050414;28;19932;-61
2021/12/05 14:29:51;;;;;;;;;;;;;;;5.95;72.49;100278.59;5050618;28;20011;-61
2021/12/05 14:32:22;;;;;;;;;;;;;;;5.95;72.93;100289.59;5048633;28;19921;-62
2021/12/05 14:34:48;;;;;;;;;;;;;;;5.95;72.24;100288.78;5050089;28;19928;-62
2021/12/05 14:37:15;;;;;;;;;;;;;;;5.95;72.59;100297.88;5050197;28;19924;-62
2021/12/05 14:39:46;;;;;;;;;;;;;;;5.97;72.31;100314.97;5052689;28;19935;-62
2021/12/05 14:42:16;;;;;;;;;;;;;;;5.96;72.30;100313.31;5049156;28;19990;-62
2021/12/05 14:44:42;;;;;;;;;;;;;;;5.98;72.48;100318.59;5050981;28;19921;-62
2021/12/05 14:47:11;;;;;;;;;;;;;;;5.99;72.33;100325.78;5049367;28;19929;-62
2021/12/05 14:49:41;;;;;;;;;;;;;;;5.99;72.09;100317.53;5048255;28;19937;-62
2021/12/05 14:52:08;;;;;;;;;;;;;;;6.00;72.37;100322.78;5052433;28;20323;-61
2021/12/05 14:54:35;;;;;;;;;;;;;;;6.00;72.24;100322.78;5051987;28;20300;-61
2021/12/05 14:57:05;;;;;;;;;;;;;;;6.00;72.49;100333.81;5050613;28;20366;-61
2021/12/05 14:59:31;;;;;;;;;;;;;;;6.00;72.36;100333.81;5046934;28;19925;-61
2021/12/05 15:01:57;;;;;;;;;;;;;;;6.01;71.93;100341.00;5044693;28;19921;-61
2021/12/05 15:04:25;;;;;;;;;;;;;;;6.02;72.00;100350.13;5040018;28;20038;-61
2021/12/05 15:06:51;;;;;;;;;;;;;;;6.02;71.83;100348.19;5049752;28;19924;-61
2021/12/05 15:09:16;;;;;;;;;;;;;;;6.04;72.11;100351.53;5048655;28;20281;-60
2021/12/05 15:11:55;;;;;;;;;;;;;;;6.06;72.37;100359.59;5042996;28;20008;-60
2021/12/05 15:14:21;;;;;;;;;;;;;;;6.39;78.42;100365.38;5047829;28;20412;-62
2021/12/05 15:16:51;;;;;;;;;;;;;;;6.85;75.26;100368.41;5040569;28;19921;-62
2021/12/05 15:19:16;;;;;;;;;;;;;;;6.88;73.51;100378.97;5041598;28;20319;-61
2021/12/05 15:21:42;;;;;;;;;;;;;;;6.81;72.89;100379.09;5050444;28;20007;-61
2021/12/05 15:24:11;;;;;;;;;;;;;;;6.83;73.15;100382.44;5044447;28;19920;-62
2021/12/05 15:26:36;;;;;;;;;;;;;;;6.76;72.86;100391.91;5049664;28;19925;-61
2021/12/05 15:29:02;;;;;;;;;;;;;;;6.68;71.92;100400.53;5057698;28;19936;-62
2021/12/05 15:31:32;;;;;;;;;;;;;;;6.59;72.17;100403.66;5051294;28;20007;-62
2021/12/05 15:33:58;;;;;;;;;;;;;;;6.51;71.75;100406.75;5042868;28;19921;-62
2021/12/05 15:36:29;;;;;;;;;;;;;;;6.47;72.46;100421.25;5050649;28;19920;-61
2021/12/05 15:38:54;;;;;;;;;;;;;;;6.40;71.71;100421.34;5042518;28;19921;-61
2021/12/05 15:41:21;;;;;;;;;;;;;;;6.36;72.63;100417.41;5050261;28;20010;-61
2021/12/05 15:43:46;;;;;;;;;;;;;;;6.33;72.09;100431.66;5050566;28;19974;-62
2021/12/05 15:46:13;;;;;;;;;;;;;;;6.30;72.09;100432.13;5049564;28;20249;-62
2021/12/05 15:48:39;;;;;;;;;;;;;;;6.27;71.90;100432.59;5050058;28;19920;-63
2021/12/05 15:51:06;;;;;;;;;;;;;;;6.24;71.87;100435.81;5052488;28;19920;-62
2021/12/05 15:53:34;;;;;;;;;;;;;;;6.24;72.48;100444.09;5047578;28;19929;-62
2021/12/05 15:56:00;;;;;;;;;;;;;;;6.23;72.40;100447.94;5048701;28;20368;-62
2021/12/05 15:58:31;;;;;;;;;;;;;;;6.21;72.19;100455.56;5049514;28;20304;-62
2021/12/05 16:00:59;;;;;;;;;;;;;;;6.20;72.36;100451.97;5050180;28;19928;-63
2021/12/05 16:03:27;;;;;;;;;;;;;;;6.21;71.99;100461.09;5051169;28;20012;-62
2021/12/05 16:05:53;;;;;;;;;;;;;;;6.22;71.77;100457.28;5048613;28;20455;-63
2021/12/05 16:08:19;;;;;;;;;;;;;;;6.21;71.73;100472.97;5051537;28;19920;-62
2021/12/05 16:10:46;;;;;;;;;;;;;;;6.21;71.89;100467.47;5047323;28;20015;-62
2021/12/05 16:13:22;;;;;;;;;;;;;;;6.20;71.96;100470.44;5054081;28;19921;-62
2021/12/05 16:15:49;;;;;;;;;;;;;;;6.18;71.45;100473.44;5054454;28;19928;-62
2021/12/05 16:18:15;;;;;;;;;;;;;;;6.19;71.75;100479.78;5055322;28;19948;-62
2021/12/05 16:20:47;;;;;;;;;;;;;;;6.18;71.89;100480.88;5051168;28;19959;-62
2021/12/05 16:23:25;;;;;;;;;;;;;;;6.19;71.79;100488.06;5063537;28;19928;-62
2021/12/05 16:26:11;;;;;;;;;;;;;;;6.18;71.57;100500.16;5061294;28;19921;-63
2021/12/05 16:28:39;;;;;;;;;;;;;;;6.17;72.24;100498.44;5053634;28;20339;-62
2021/12/05 16:31:13;;;;;;;;;;;;;;;6.17;71.54;100498.44;5054422;28;19947;-62
2021/12/05 16:33:38;;;;;;;;;;;;;;;6.17;72.06;100509.47;5055778;28;19921;-62
2021/12/05 16:36:04;;;;;;;;;;;;;;;6.19;71.75;100516.44;5053669;28;19921;-63
2021/12/05 16:38:37;;;;;;;;;;;;;;;6.18;72.06;100512.03;5052244;28;20303;-62
2021/12/05 16:41:05;;;;;;;;;;;;;;;6.17;72.22;100523.25;5054334;28;19974;-62
2021/12/05 16:43:32;;;;;;;;;;;;;;;6.15;72.01;100521.56;5054137;28;19956;-62
2021/12/05 16:46:13;;;;;;;;;;;;;;;6.14;71.72;100527.34;5051893;28;20003;-63
2021/12/05 16:48:39;;;;;;;;;;;;;;;6.13;72.03;100526.50;5051544;28;20054;-63
2021/12/05 16:51:15;;;;;;;;;;;;;;;6.14;72.15;100530.94;5052656;28;20332;-62
2021/12/05 16:53:45;;;;;;;;;;;;;;;6.16;72.51;100527.94;5054563;28;19963;-62
2021/12/05 16:56:13;;;;;;;;;;;;;;;6.16;71.93;100536.19;5053919;28;19928;-62
2021/12/05 16:58:39;;;;;;;;;;;;;;;6.16;72.26;100530.69;5054611;28;20011;-62
2021/12/05 17:01:07;;;;;;;;;;;;;;;6.15;71.75;100531.75;5054834;28;20330;-62
2021/12/05 17:03:32;;;;;;;;;;;;;;;6.15;71.98;100545.53;5053304;28;19971;-62
2021/12/05 17:06:04;;;;;;;;;;;;;;;6.13;72.08;100536.66;5054594;28;19963;-65
2021/12/05 17:08:33;;;;;;;;;;;;;;;6.12;71.88;100544.09;5053584;28;19963;-62
2021/12/05 17:11:01;;;;;;;;;;;;;;;6.14;71.78;100554.88;5053590;28;19975;-60
2021/12/05 17:13:32;;;;;;;;;;;;;;;6.14;71.94;100550.22;5048259;28;19921;-63
2021/12/05 17:16:09;;;;;;;;;;;;;;;6.15;72.10;100564.84;5053021;28;19920;-64
2021/12/05 17:18:46;;;;;;;;;;;;;;;6.15;72.04;100562.91;5051226;28;19978;-62
2021/12/05 17:21:19;;;;;;;;;;;;;;;6.14;71.75;100569.50;5053375;28;19929;-62
2021/12/05 17:23:54;;;;;;;;;;;;;;;6.14;71.92;100575.03;5050936;28;20016;-62
2021/12/05 17:26:22;;;;;;;;;;;;;;;6.13;72.00;100581.59;5052196;28;19920;-63
2021/12/05 17:28:47;;;;;;;;;;;;;;;6.16;72.08;100588.56;5051911;28;19928;-62
2021/12/05 17:31:14;;;;;;;;;;;;;;;6.15;71.88;100589.63;5052382;28;19937;-61
2021/12/05 17:33:41;;;;;;;;;;;;;;;6.14;72.09;100588.78;5052661;28;19956;-62
2021/12/05 17:36:15;;;;;;;;;;;;;;;6.13;71.54;100597.28;5051540;28;20016;-62
2021/12/05 17:38:41;;;;;;;;;;;;;;;6.11;71.84;100605.78;5044670;28;19921;-63
2021/12/05 17:41:06;;;;;;;;;;;;;;;6.09;72.32;100602.44;5053263;28;19920;-62
2021/12/05 17:43:32;;;;;;;;;;;;;;;6.09;72.14;100610.69;5052644;28;20369;-59
2021/12/05 17:45:57;;;;;;;;;;;;;;;6.08;72.19;100622.78;5049354;28;19925;-61
2021/12/05 17:48:22;;;;;;;;;;;;;;;6.09;72.07;100629.13;5052139;28;19950;-60
2021/12/05 17:50:52;;;;;;;;;;;;;;;6.09;72.06;100632.75;5052102;28;19925;-61
2021/12/05 17:53:18;;;;;;;;;;;;;;;6.11;71.77;100638.00;5052380;28;19944;-59